createdAt,value
2017-03-05T00:00:01.596Z,86.66
2017-03-05T00:00:23.305Z,86.82
2017-03-05T00:00:45.002Z,86.79
2017-03-05T00:01:06.692Z,86.06
2017-03-05T00:01:28.395Z,86.39
2017-03-05T00:01:54.865Z,85.99
2017-03-05T00:02:16.557Z,86.40
2017-03-05T00:02:47.808Z,86.76
2017-03-05T00:03:09.510Z,86.63
2017-03-05T00:03:31.240Z,86.46
2017-03-05T00:03:52.942Z,86.63
2017-03-05T00:04:14.628Z,86.88
2017-03-05T00:04:41.100Z,87.35
2017-03-05T00:05:02.787Z,87.52
2017-03-05T00:05:24.488Z,87.65
2017-03-05T00:06:27.531Z,87.52
2017-03-05T00:06:49.222Z,87.85
2017-03-05T00:07:20.473Z,87.40
2017-03-05T00:07:42.169Z,87.32
2017-03-05T00:08:08.644Z,87.66
2017-03-05T00:08:30.366Z,87.50
2017-03-05T00:08:52.064Z,87.50
2017-03-05T00:09:18.541Z,87.41
2017-03-05T00:09:40.230Z,87.30
2017-03-05T00:10:01.944Z,87.69
2017-03-05T00:10:33.182Z,87.40
2017-03-05T00:10:54.878Z,87.17
2017-03-05T00:11:16.587Z,86.90
2017-03-05T00:11:38.290Z,87.29
2017-03-05T00:11:59.986Z,87.57
2017-03-05T00:12:21.689Z,87.41
2017-03-05T00:12:43.398Z,88.07
2017-03-05T00:13:05.090Z,88.18
2017-03-05T00:14:03.381Z,87.83
2017-03-05T00:14:25.086Z,87.52
2017-03-05T00:14:51.566Z,86.89
2017-03-05T00:15:13.253Z,87.06
2017-03-05T00:15:44.500Z,86.37
2017-03-05T00:16:06.207Z,85.57
2017-03-05T00:16:32.690Z,85.49
2017-03-05T00:16:54.392Z,85.35
2017-03-05T00:17:16.091Z,85.07
2017-03-05T00:17:42.565Z,85.18
2017-03-05T00:18:04.261Z,85.35
2017-03-05T00:18:25.967Z,85.81
2017-03-05T00:18:47.694Z,85.67
2017-03-05T00:19:09.384Z,85.69
2017-03-05T00:19:35.877Z,84.92
2017-03-05T00:19:57.569Z,84.77
2017-03-05T00:20:28.827Z,84.67
2017-03-05T00:20:50.517Z,84.70
2017-03-05T00:21:12.221Z,84.52
2017-03-05T00:21:43.481Z,84.39
2017-03-05T00:22:05.173Z,84.53
2017-03-05T00:22:36.433Z,84.62
2017-03-05T00:22:58.149Z,84.88
2017-03-05T00:23:24.619Z,84.77
2017-03-05T00:23:46.348Z,84.77
2017-03-05T00:24:08.044Z,83.65
2017-03-05T00:24:29.744Z,83.51
2017-03-05T00:24:51.446Z,83.51
2017-03-05T00:25:13.147Z,83.63
2017-03-05T00:25:34.858Z,83.69
2017-03-05T00:25:56.553Z,83.66
2017-03-05T00:26:18.244Z,83.79
2017-03-05T00:27:16.530Z,84.31
2017-03-05T00:27:38.230Z,84.10
2017-03-05T00:27:59.936Z,83.83
2017-03-05T00:28:21.634Z,84.19
2017-03-05T00:28:43.365Z,84.30
2017-03-05T00:29:09.849Z,84.37
2017-03-05T00:29:31.538Z,84.63
2017-03-05T00:29:58.015Z,84.59
2017-03-05T00:30:19.714Z,84.39
2017-03-05T00:30:41.404Z,84.54
2017-03-05T00:31:07.896Z,84.11
2017-03-05T00:31:29.590Z,84.55
2017-03-05T00:32:00.837Z,84.39
2017-03-05T00:32:22.529Z,84.28
2017-03-05T00:32:44.229Z,84.55
2017-03-05T00:33:15.496Z,84.58
2017-03-05T00:33:37.192Z,84.69
2017-03-05T00:33:58.909Z,84.52
2017-03-05T00:34:25.380Z,84.67
2017-03-05T00:34:47.066Z,84.89
2017-03-05T00:35:13.541Z,84.85
2017-03-05T00:35:35.239Z,85.03
2017-03-05T00:36:06.482Z,85.07
2017-03-05T00:36:28.175Z,84.84
2017-03-05T00:36:54.668Z,84.63
2017-03-05T00:37:16.365Z,84.60
2017-03-05T00:37:38.063Z,84.63
2017-03-05T00:38:04.540Z,84.80
2017-03-05T00:38:26.238Z,85.07
2017-03-05T00:38:47.936Z,84.81
2017-03-05T00:39:14.418Z,84.74
2017-03-05T00:39:36.111Z,84.89
2017-03-05T00:39:57.821Z,85.06
2017-03-05T00:40:19.519Z,84.72
2017-03-05T00:40:41.211Z,84.86
2017-03-05T00:41:02.914Z,85.08
2017-03-05T00:41:34.167Z,85.03
2017-03-05T00:41:55.865Z,85.08
2017-03-05T00:42:27.134Z,85.26
2017-03-05T00:42:48.819Z,85.09
2017-03-05T00:43:20.087Z,85.19
2017-03-05T00:43:41.786Z,85.42
2017-03-05T00:44:03.487Z,85.20
2017-03-05T00:44:25.214Z,85.00
2017-03-05T00:44:46.914Z,84.99
2017-03-05T00:45:08.612Z,85.17
2017-03-05T00:45:30.309Z,85.21
2017-03-05T00:45:52.002Z,84.90
2017-03-05T00:46:13.724Z,85.00
2017-03-05T00:46:40.192Z,85.31
2017-03-05T00:47:01.886Z,85.38
2017-03-05T00:47:23.581Z,85.35
2017-03-05T00:47:45.282Z,85.38
2017-03-05T00:48:38.238Z,85.36
2017-03-05T00:48:59.938Z,85.33
2017-03-05T00:49:21.644Z,85.18
2017-03-05T00:49:43.346Z,85.22
2017-03-05T00:50:05.048Z,85.22
2017-03-05T00:50:26.752Z,85.21
2017-03-05T00:50:48.463Z,85.14
2017-03-05T00:51:10.172Z,85.20
2017-03-05T00:51:36.637Z,85.43
2017-03-05T00:51:58.351Z,85.37
2017-03-05T00:52:29.599Z,85.45
2017-03-05T00:52:51.288Z,85.27
2017-03-05T00:53:13.010Z,85.41
2017-03-05T00:53:39.497Z,85.48
2017-03-05T00:54:01.184Z,85.49
2017-03-05T00:54:32.439Z,85.52
2017-03-05T00:54:54.133Z,85.50
2017-03-05T00:55:25.401Z,85.24
2017-03-05T00:55:47.087Z,85.24
2017-03-05T00:56:08.792Z,85.12
2017-03-05T00:56:30.496Z,84.90
2017-03-05T00:56:52.197Z,85.11
2017-03-05T00:57:13.906Z,84.82
2017-03-05T00:57:40.369Z,84.89
2017-03-05T00:58:02.064Z,84.90
2017-03-05T00:58:28.537Z,85.14
2017-03-05T00:58:50.233Z,85.03
2017-03-05T00:59:11.938Z,85.13
2017-03-05T00:59:33.663Z,85.02
2017-03-05T00:59:55.360Z,84.82
2017-03-05T01:00:17.067Z,84.57
2017-03-05T01:00:38.766Z,84.63
2017-03-05T01:01:00.466Z,84.60
2017-03-05T01:01:22.172Z,84.63
2017-03-05T01:01:43.872Z,84.71
2017-03-05T01:02:05.567Z,84.50
2017-03-05T01:02:32.061Z,84.52
2017-03-05T01:02:58.534Z,84.24
2017-03-05T01:03:20.254Z,84.27
2017-03-05T01:03:41.943Z,84.21
2017-03-05T01:04:03.637Z,84.35
2017-03-05T01:04:25.346Z,84.11
2017-03-05T01:04:47.064Z,83.88
2017-03-05T01:05:08.767Z,83.78
2017-03-05T01:05:30.460Z,83.84
2017-03-05T01:05:52.166Z,83.83
2017-03-05T01:06:13.875Z,83.76
2017-03-05T01:06:35.571Z,83.85
2017-03-05T01:06:57.270Z,83.24
2017-03-05T01:07:23.736Z,83.35
2017-03-05T01:07:45.427Z,83.16
2017-03-05T01:08:11.913Z,83.15
2017-03-05T01:08:33.607Z,83.23
2017-03-05T01:08:55.299Z,83.32
2017-03-05T01:09:17.010Z,83.19
2017-03-05T01:09:38.694Z,83.07
2017-03-05T01:10:00.412Z,82.92
2017-03-05T01:10:22.124Z,82.90
2017-03-05T01:10:43.826Z,83.13
2017-03-05T01:11:05.545Z,83.08
2017-03-05T01:12:08.585Z,82.92
2017-03-05T01:12:30.289Z,82.89
2017-03-05T01:12:51.985Z,82.86
2017-03-05T01:13:13.695Z,82.95
2017-03-05T01:13:35.395Z,82.82
2017-03-05T01:14:01.863Z,82.58
2017-03-05T01:14:23.559Z,82.62
2017-03-05T01:14:54.818Z,82.37
2017-03-05T01:15:16.510Z,81.94
2017-03-05T01:15:47.769Z,82.18
2017-03-05T01:16:10.063Z,82.28
2017-03-05T01:16:31.765Z,82.62
2017-03-05T01:16:53.465Z,82.59
2017-03-05T01:17:15.161Z,82.45
2017-03-05T01:17:41.641Z,82.04
2017-03-05T01:18:03.334Z,81.76
2017-03-05T01:18:25.039Z,81.81
2017-03-05T01:18:46.741Z,81.97
2017-03-05T01:19:08.436Z,82.06
2017-03-05T01:19:30.129Z,81.65
2017-03-05T01:20:28.449Z,82.05
2017-03-05T01:20:50.144Z,81.88
2017-03-05T01:21:16.621Z,81.70
2017-03-05T01:21:38.328Z,81.68
2017-03-05T01:22:04.801Z,81.46
2017-03-05T01:22:26.496Z,81.71
2017-03-05T01:22:48.194Z,81.80
2017-03-05T01:23:09.911Z,81.47
2017-03-05T01:23:31.613Z,81.70
2017-03-05T01:24:29.915Z,81.02
2017-03-05T01:24:51.619Z,81.19
2017-03-05T01:25:22.867Z,81.47
2017-03-05T01:25:44.566Z,81.02
2017-03-05T01:26:06.284Z,81.22
2017-03-05T01:26:27.984Z,81.20
2017-03-05T01:26:49.718Z,81.36
2017-03-05T01:27:11.418Z,81.20
2017-03-05T01:28:18.700Z,80.87
2017-03-05T01:28:40.402Z,81.10
2017-03-05T01:29:06.900Z,80.50
2017-03-05T01:29:28.595Z,80.44
2017-03-05T01:29:50.294Z,80.57
2017-03-05T01:30:12.019Z,80.47
2017-03-05T01:30:33.712Z,80.66
2017-03-05T01:30:55.415Z,80.68
2017-03-05T01:31:57.936Z,80.75
2017-03-05T01:32:19.629Z,80.76
2017-03-05T01:32:41.326Z,80.87
2017-03-05T01:33:03.051Z,80.34
2017-03-05T01:33:24.755Z,80.45
2017-03-05T01:33:46.463Z,80.57
2017-03-05T01:34:12.948Z,80.49
2017-03-05T01:34:34.656Z,80.48
2017-03-05T01:34:56.355Z,80.60
2017-03-05T01:35:22.829Z,80.73
2017-03-05T01:35:44.519Z,80.72
2017-03-05T01:36:11.000Z,80.24
2017-03-05T01:36:32.710Z,80.25
2017-03-05T01:36:54.406Z,80.20
2017-03-05T01:37:16.108Z,80.14
2017-03-05T01:37:37.806Z,80.17
2017-03-05T01:37:59.509Z,80.20
2017-03-05T01:38:30.765Z,80.52
2017-03-05T01:38:52.461Z,80.41
2017-03-05T01:39:14.164Z,80.50
2017-03-05T01:39:35.868Z,80.57
2017-03-05T01:39:57.567Z,80.65
2017-03-05T01:40:28.800Z,80.57
2017-03-05T01:40:50.492Z,80.57
2017-03-05T01:41:12.188Z,80.70
2017-03-05T01:41:33.898Z,80.64
2017-03-05T01:41:55.594Z,80.60
2017-03-05T01:42:17.293Z,80.70
2017-03-05T01:42:38.999Z,80.70
2017-03-05T01:43:00.699Z,80.51
2017-03-05T01:43:22.411Z,80.67
2017-03-05T01:43:44.113Z,80.62
2017-03-05T01:44:05.805Z,80.57
2017-03-05T01:44:37.052Z,80.75
2017-03-05T01:44:58.743Z,80.69
2017-03-05T01:45:29.991Z,80.65
2017-03-05T01:45:51.688Z,80.75
2017-03-05T01:46:13.392Z,80.92
2017-03-05T01:46:35.095Z,80.83
2017-03-05T01:46:56.810Z,81.13
2017-03-05T01:47:18.500Z,81.02
2017-03-05T01:47:40.208Z,81.08
2017-03-05T01:48:01.914Z,81.17
2017-03-05T01:48:23.627Z,81.10
2017-03-05T01:48:45.347Z,81.03
2017-03-05T01:49:07.031Z,81.20
2017-03-05T01:49:28.749Z,81.34
2017-03-05T01:49:50.448Z,81.43
2017-03-05T01:50:12.266Z,81.37
2017-03-05T01:50:38.766Z,81.47
2017-03-05T01:51:10.026Z,81.20
2017-03-05T01:51:31.723Z,81.06
2017-03-05T01:52:19.895Z,81.25
2017-03-05T01:52:41.600Z,81.38
2017-03-05T01:53:05.521Z,81.39
2017-03-05T01:53:27.220Z,81.41
2017-03-05T01:53:48.925Z,81.28
2017-03-05T01:54:15.397Z,81.35
2017-03-05T01:55:18.474Z,81.54
2017-03-05T01:55:40.199Z,81.27
2017-03-05T01:56:08.967Z,81.02
2017-03-05T01:56:30.709Z,80.98
2017-03-05T01:56:52.414Z,81.09
2017-03-05T01:57:14.125Z,81.19
2017-03-05T01:57:35.825Z,81.38
2017-03-05T01:57:57.525Z,81.21
2017-03-05T01:58:19.234Z,81.39
2017-03-05T01:58:40.919Z,81.45
2017-03-05T01:59:02.624Z,81.33
2017-03-05T01:59:29.102Z,81.32
2017-03-05T01:59:50.805Z,81.43
2017-03-05T02:00:22.062Z,81.55
2017-03-05T02:00:43.777Z,81.57
2017-03-05T02:01:49.771Z,81.68
2017-03-05T02:02:11.484Z,81.58
2017-03-05T02:02:33.178Z,81.59
2017-03-05T02:02:59.660Z,81.67
2017-03-05T02:03:52.609Z,81.39
2017-03-05T02:04:14.308Z,81.57
2017-03-05T02:05:02.475Z,81.53
2017-03-05T02:05:24.167Z,81.53
2017-03-05T02:05:50.638Z,81.87
2017-03-05T02:06:14.581Z,81.85
2017-03-05T02:06:45.839Z,81.90
2017-03-05T02:07:07.540Z,81.85
2017-03-05T02:07:34.023Z,81.88
2017-03-05T02:07:55.727Z,81.57
2017-03-05T02:08:17.428Z,81.60
2017-03-05T02:08:43.899Z,81.88
2017-03-05T02:09:05.594Z,81.91
2017-03-05T02:09:36.854Z,81.70
2017-03-05T02:10:08.635Z,81.73
2017-03-05T02:10:30.343Z,81.80
2017-03-05T02:11:01.604Z,81.91
2017-03-05T02:11:23.324Z,81.99
2017-03-05T02:11:45.021Z,82.00
2017-03-05T02:12:06.721Z,81.82
2017-03-05T02:12:28.430Z,81.65
2017-03-05T02:12:54.897Z,81.78
2017-03-05T02:13:16.593Z,81.76
2017-03-05T02:13:47.840Z,82.00
2017-03-05T02:14:09.534Z,81.95
2017-03-05T02:14:31.243Z,81.92
2017-03-05T02:14:52.949Z,81.87
2017-03-05T02:15:14.639Z,81.99
2017-03-05T02:15:41.112Z,82.21
2017-03-05T02:16:02.819Z,82.21
2017-03-05T02:16:24.544Z,82.15
2017-03-05T02:16:46.246Z,82.22
2017-03-05T02:17:07.967Z,82.28
2017-03-05T02:17:39.211Z,82.33
2017-03-05T02:18:00.902Z,82.18
2017-03-05T02:18:27.378Z,82.17
2017-03-05T02:18:49.078Z,82.31
2017-03-05T02:19:10.780Z,82.25
2017-03-05T02:19:32.480Z,82.35
2017-03-05T02:19:54.171Z,82.27
2017-03-05T02:20:15.874Z,82.22
2017-03-05T02:20:47.132Z,82.23
2017-03-05T02:21:08.823Z,81.93
2017-03-05T02:21:30.519Z,82.10
2017-03-05T02:21:52.260Z,82.17
2017-03-05T02:22:13.977Z,82.22
2017-03-05T02:22:35.684Z,82.09
2017-03-05T02:23:02.169Z,81.81
2017-03-05T02:23:23.865Z,81.75
2017-03-05T02:23:45.555Z,81.70
2017-03-05T02:24:12.026Z,81.79
2017-03-05T02:24:33.732Z,81.85
2017-03-05T02:24:55.441Z,82.02
2017-03-05T02:25:17.137Z,81.79
2017-03-05T02:25:41.652Z,82.00
2017-03-05T02:26:08.139Z,81.92
2017-03-05T02:26:34.606Z,81.79
2017-03-05T02:26:56.303Z,81.74
2017-03-05T02:27:18.021Z,81.75
2017-03-05T02:27:39.723Z,81.85
2017-03-05T02:28:01.430Z,81.99
2017-03-05T02:28:23.121Z,81.84
2017-03-05T02:28:44.827Z,81.81
2017-03-05T02:29:06.529Z,81.87
2017-03-05T02:29:28.225Z,81.90
2017-03-05T02:29:49.919Z,82.14
2017-03-05T02:30:21.176Z,82.05
2017-03-05T02:30:42.874Z,82.23
2017-03-05T02:31:04.578Z,82.10
2017-03-05T02:31:31.057Z,82.10
2017-03-05T02:31:52.747Z,81.95
2017-03-05T02:32:26.736Z,81.90
2017-03-05T02:32:48.437Z,82.20
2017-03-05T02:33:10.138Z,82.25
2017-03-05T02:33:31.845Z,82.32
2017-03-05T02:33:53.532Z,82.11
2017-03-05T02:34:20.015Z,81.88
2017-03-05T02:34:41.710Z,81.95
2017-03-05T02:35:03.409Z,81.98
2017-03-05T02:35:25.109Z,81.99
2017-03-05T02:35:46.814Z,81.89
2017-03-05T02:36:08.510Z,82.11
2017-03-05T02:36:30.209Z,82.25
2017-03-05T02:36:56.694Z,82.24
2017-03-05T02:37:18.401Z,82.25
2017-03-05T02:37:40.129Z,82.30
2017-03-05T02:38:01.824Z,82.38
2017-03-05T02:38:23.527Z,82.55
2017-03-05T02:38:45.238Z,82.68
2017-03-05T02:39:06.927Z,82.66
2017-03-05T02:39:35.426Z,82.89
2017-03-05T02:39:57.120Z,82.78
2017-03-05T02:40:18.819Z,82.56
2017-03-05T02:40:40.519Z,82.52
2017-03-05T02:41:02.206Z,82.44
2017-03-05T02:41:23.910Z,82.48
2017-03-05T02:41:45.609Z,82.49
2017-03-05T02:42:07.303Z,82.41
2017-03-05T02:42:29.013Z,82.26
2017-03-05T02:42:55.493Z,82.20
2017-03-05T02:43:17.198Z,82.23
2017-03-05T02:43:38.898Z,82.37
2017-03-05T02:44:00.598Z,82.20
2017-03-05T02:44:22.293Z,82.25
2017-03-05T02:44:44.001Z,82.34
2017-03-05T02:45:15.255Z,82.29
2017-03-05T02:45:47.100Z,82.16
2017-03-05T02:46:08.812Z,81.92
2017-03-05T02:46:40.069Z,82.20
2017-03-05T02:47:01.762Z,82.10
2017-03-05T02:47:23.470Z,82.01
2017-03-05T02:47:45.195Z,82.05
2017-03-05T02:48:06.888Z,81.96
2017-03-05T02:48:28.588Z,82.02
2017-03-05T02:48:59.836Z,81.90
2017-03-05T02:49:21.532Z,81.79
2017-03-05T02:49:50.515Z,81.85
2017-03-05T02:50:12.207Z,81.72
2017-03-05T02:50:43.452Z,82.06
2017-03-05T02:51:05.179Z,82.12
2017-03-05T02:51:26.869Z,81.99
2017-03-05T02:51:58.128Z,81.94
2017-03-05T02:52:19.823Z,81.94
2017-03-05T02:52:46.302Z,82.04
2017-03-05T02:53:07.998Z,81.86
2017-03-05T02:53:32.300Z,81.70
2017-03-05T02:53:54.002Z,81.83
2017-03-05T02:54:20.526Z,82.20
2017-03-05T02:54:42.366Z,82.46
2017-03-05T02:55:04.178Z,82.23
2017-03-05T02:56:07.458Z,82.05
2017-03-05T02:56:29.167Z,82.11
2017-03-05T02:57:00.545Z,81.81
2017-03-05T02:57:22.184Z,81.71
2017-03-05T02:57:43.922Z,81.63
2017-03-05T02:58:10.399Z,81.67
2017-03-05T02:58:32.198Z,81.47
2017-03-05T02:59:03.484Z,81.76
2017-03-05T02:59:25.183Z,81.61
2017-03-05T02:59:56.563Z,81.55
2017-03-05T03:00:18.344Z,81.70
2017-03-05T03:00:49.631Z,81.83
2017-03-05T03:01:11.383Z,81.64
2017-03-05T03:01:33.099Z,81.44
2017-03-05T03:01:59.583Z,81.36
2017-03-05T03:02:21.387Z,81.39
2017-03-05T03:02:52.645Z,81.17
2017-03-05T03:03:14.370Z,81.24
2017-03-05T03:03:36.152Z,81.43
2017-03-05T03:04:02.648Z,81.25
2017-03-05T03:04:24.370Z,81.40
2017-03-05T03:04:51.067Z,81.45
2017-03-05T03:05:12.777Z,81.42
2017-03-05T03:05:39.272Z,81.26
2017-03-05T03:06:00.978Z,81.20
2017-03-05T03:06:27.533Z,81.22
2017-03-05T03:06:49.243Z,81.05
2017-03-05T03:07:15.748Z,81.13
2017-03-05T03:07:37.456Z,81.21
2017-03-05T03:07:59.237Z,81.22
2017-03-05T03:08:20.959Z,81.08
2017-03-05T03:08:52.235Z,81.07
2017-03-05T03:09:14.004Z,80.94
2017-03-05T03:09:35.731Z,80.87
2017-03-05T03:10:02.216Z,80.94
2017-03-05T03:10:23.927Z,80.95
2017-03-05T03:10:50.533Z,80.67
2017-03-05T03:11:12.251Z,80.78
2017-03-05T03:11:43.528Z,80.63
2017-03-05T03:12:05.304Z,80.52
2017-03-05T03:12:27.015Z,80.50
2017-03-05T03:12:53.511Z,80.34
2017-03-05T03:13:15.221Z,80.23
2017-03-05T03:13:37.011Z,80.41
2017-03-05T03:14:40.121Z,80.21
2017-03-05T03:15:01.903Z,80.34
2017-03-05T03:16:04.424Z,80.29
2017-03-05T03:16:26.209Z,80.20
2017-03-05T03:17:33.506Z,80.14
2017-03-05T03:17:55.288Z,80.23
2017-03-05T03:18:16.997Z,80.30
2017-03-05T03:18:48.261Z,80.24
2017-03-05T03:19:10.064Z,80.27
2017-03-05T03:19:31.773Z,80.35
2017-03-05T03:19:58.281Z,80.04
2017-03-05T03:20:19.968Z,80.12
2017-03-05T03:20:46.508Z,79.99
2017-03-05T03:21:08.216Z,79.90
2017-03-05T03:21:34.687Z,79.84
2017-03-05T03:21:56.426Z,79.93
2017-03-05T03:22:22.963Z,79.72
2017-03-05T03:22:44.660Z,79.75
2017-03-05T03:23:11.371Z,79.81
2017-03-05T03:23:33.085Z,79.83
2017-03-05T03:23:54.859Z,79.81
2017-03-05T03:24:21.338Z,79.81
2017-03-05T03:24:43.048Z,79.87
2017-03-05T03:25:55.105Z,79.76
2017-03-05T03:26:16.852Z,79.82
2017-03-05T03:26:38.632Z,79.74
2017-03-05T03:27:09.914Z,79.65
2017-03-05T03:27:31.595Z,79.61
2017-03-05T03:27:58.144Z,79.48
2017-03-05T03:28:19.838Z,79.47
2017-03-05T03:28:41.593Z,79.44
2017-03-05T03:29:03.301Z,79.30
2017-03-05T03:29:25.083Z,79.27
2017-03-05T03:29:56.344Z,79.16
2017-03-05T03:30:18.063Z,79.22
2017-03-05T03:30:39.840Z,79.25
2017-03-05T03:31:06.326Z,79.29
2017-03-05T03:31:28.037Z,79.34
2017-03-05T03:31:54.587Z,79.37
2017-03-05T03:32:16.291Z,79.51
2017-03-05T03:32:42.773Z,79.45
2017-03-05T03:33:04.475Z,79.43
2017-03-05T03:33:26.277Z,79.29
2017-03-05T03:33:57.556Z,79.37
2017-03-05T03:34:19.250Z,79.49
2017-03-05T03:34:50.640Z,79.38
2017-03-05T03:35:12.293Z,79.46
2017-03-05T03:35:34.001Z,79.63
2017-03-05T03:35:55.720Z,79.81
2017-03-05T03:36:17.505Z,79.87
2017-03-05T03:36:48.789Z,79.90
2017-03-05T03:37:10.464Z,80.04
2017-03-05T03:37:41.848Z,80.07
2017-03-05T03:38:03.484Z,80.22
2017-03-05T03:38:34.735Z,80.31
2017-03-05T03:38:56.550Z,80.40
2017-03-05T03:39:27.816Z,80.52
2017-03-05T03:39:49.541Z,80.41
2017-03-05T03:40:16.086Z,80.47
2017-03-05T03:40:37.794Z,80.56
2017-03-05T03:41:09.090Z,80.67
2017-03-05T03:41:30.880Z,80.79
2017-03-05T03:42:02.160Z,80.79
2017-03-05T03:42:23.878Z,80.74
2017-03-05T03:42:45.674Z,80.89
2017-03-05T03:43:07.400Z,80.80
2017-03-05T03:43:29.105Z,80.87
2017-03-05T03:43:50.818Z,80.98
2017-03-05T03:44:17.387Z,80.84
2017-03-05T03:44:39.096Z,80.68
2017-03-05T03:45:05.594Z,80.96
2017-03-05T03:45:27.297Z,80.77
2017-03-05T03:45:53.848Z,80.74
2017-03-05T03:46:15.554Z,80.90
2017-03-05T03:46:42.040Z,81.01
2017-03-05T03:47:03.748Z,81.21
2017-03-05T03:47:25.521Z,81.18
2017-03-05T03:47:52.008Z,81.02
2017-03-05T03:48:13.727Z,81.11
2017-03-05T03:49:12.265Z,81.23
2017-03-05T03:49:33.996Z,81.12
2017-03-05T03:50:00.467Z,81.28
2017-03-05T03:50:22.277Z,81.13
2017-03-05T03:51:29.550Z,80.95
2017-03-05T03:51:51.814Z,80.95
2017-03-05T03:52:23.075Z,81.09
2017-03-05T03:52:44.784Z,81.02
2017-03-05T03:53:06.594Z,80.95
2017-03-05T03:54:18.677Z,80.93
2017-03-05T03:54:40.472Z,80.85
2017-03-05T03:55:11.734Z,80.91
2017-03-05T03:55:33.550Z,80.97
2017-03-05T03:56:40.835Z,80.88
2017-03-05T03:57:02.633Z,80.78
2017-03-05T03:58:09.931Z,80.96
2017-03-05T03:58:31.778Z,80.96
2017-03-05T03:59:34.879Z,80.86
2017-03-05T03:59:56.611Z,80.82
2017-03-05T04:00:59.692Z,81.06
2017-03-05T04:01:21.483Z,81.05
2017-03-05T04:01:43.205Z,81.09
2017-03-05T04:02:09.689Z,81.22
2017-03-05T04:02:31.486Z,81.11
2017-03-05T04:02:53.210Z,81.03
2017-03-05T04:03:24.529Z,81.23
2017-03-05T04:03:46.310Z,81.15
2017-03-05T04:04:17.588Z,81.26
2017-03-05T04:04:39.299Z,81.16
2017-03-05T04:05:05.855Z,80.98
2017-03-05T04:05:27.574Z,81.02
2017-03-05T04:05:58.836Z,81.30
2017-03-05T04:06:20.510Z,81.15
2017-03-05T04:06:46.987Z,81.03
2017-03-05T04:07:08.688Z,80.88
2017-03-05T04:07:30.389Z,80.73
2017-03-05T04:07:56.862Z,80.79
2017-03-05T04:08:18.563Z,80.81
2017-03-05T04:08:40.264Z,80.90
2017-03-05T04:09:01.975Z,80.97
2017-03-05T04:09:23.666Z,81.07
2017-03-05T04:09:45.387Z,81.03
2017-03-05T04:10:11.873Z,80.98
2017-03-05T04:10:33.567Z,81.03
2017-03-05T04:10:55.268Z,81.14
2017-03-05T04:11:16.974Z,81.04
2017-03-05T04:11:38.662Z,81.10
2017-03-05T04:12:00.358Z,80.96
2017-03-05T04:12:26.839Z,80.98
2017-03-05T04:12:48.535Z,80.81
2017-03-05T04:13:15.019Z,80.77
2017-03-05T04:13:36.706Z,80.85
2017-03-05T04:13:58.403Z,80.83
2017-03-05T04:14:20.107Z,80.83
2017-03-05T04:14:41.806Z,80.95
2017-03-05T04:15:13.064Z,80.88
2017-03-05T04:15:34.757Z,80.79
2017-03-05T04:16:06.005Z,80.80
2017-03-05T04:16:27.700Z,80.71
2017-03-05T04:16:49.400Z,80.66
2017-03-05T04:17:11.110Z,80.61
2017-03-05T04:17:32.815Z,80.59
2017-03-05T04:17:54.511Z,80.59
2017-03-05T04:18:16.222Z,80.67
2017-03-05T04:18:37.918Z,80.69
2017-03-05T04:18:59.627Z,80.65
2017-03-05T04:19:26.097Z,80.59
2017-03-05T04:19:47.835Z,80.56
2017-03-05T04:20:09.531Z,80.46
2017-03-05T04:20:31.246Z,80.65
2017-03-05T04:20:52.935Z,80.71
2017-03-05T04:21:19.414Z,80.81
2017-03-05T04:21:41.112Z,80.85
2017-03-05T04:22:07.589Z,80.74
2017-03-05T04:22:29.296Z,80.78
2017-03-05T04:22:51.003Z,80.94
2017-03-05T04:23:12.706Z,81.03
2017-03-05T04:23:39.176Z,81.12
2017-03-05T04:24:32.171Z,81.12
2017-03-05T04:24:53.915Z,81.23
2017-03-05T04:25:15.619Z,81.11
2017-03-05T04:25:37.323Z,81.08
2017-03-05T04:25:59.022Z,81.01
2017-03-05T04:26:20.728Z,80.88
2017-03-05T04:26:47.205Z,80.80
2017-03-05T04:27:08.907Z,80.86
2017-03-05T04:27:35.395Z,80.92
2017-03-05T04:27:57.093Z,81.03
2017-03-05T04:28:18.798Z,80.99
2017-03-05T04:28:40.497Z,80.92
2017-03-05T04:29:02.197Z,80.88
2017-03-05T04:29:23.883Z,81.00
2017-03-05T04:29:45.589Z,80.95
2017-03-05T04:30:07.304Z,80.93
2017-03-05T04:30:28.995Z,80.81
2017-03-05T04:30:50.696Z,80.80
2017-03-05T04:31:12.389Z,80.93
2017-03-05T04:31:34.102Z,80.92
2017-03-05T04:31:55.804Z,80.76
2017-03-05T04:32:17.595Z,80.74
2017-03-05T04:32:39.285Z,80.93
2017-03-05T04:33:05.763Z,80.97
2017-03-05T04:33:27.455Z,81.05
2017-03-05T04:33:49.151Z,80.92
2017-03-05T04:34:15.624Z,80.75
2017-03-05T04:34:37.311Z,80.80
2017-03-05T04:34:59.013Z,80.85
2017-03-05T04:35:20.745Z,80.85
2017-03-05T04:35:42.438Z,80.77
2017-03-05T04:36:04.144Z,80.91
2017-03-05T04:36:25.840Z,80.86
2017-03-05T04:36:47.538Z,80.88
2017-03-05T04:37:14.013Z,80.92
2017-03-05T04:37:35.701Z,80.85
2017-03-05T04:38:06.952Z,80.90
2017-03-05T04:38:28.660Z,80.82
2017-03-05T04:38:50.360Z,81.14
2017-03-05T04:39:53.432Z,81.12
2017-03-05T04:40:15.120Z,81.07
2017-03-05T04:40:36.853Z,81.08
2017-03-05T04:41:08.099Z,81.02
2017-03-05T04:41:29.826Z,80.89
2017-03-05T04:41:56.303Z,80.88
2017-03-05T04:42:18.001Z,80.83
2017-03-05T04:42:39.707Z,80.79
2017-03-05T04:43:01.406Z,80.82
2017-03-05T04:43:23.101Z,80.94
2017-03-05T04:43:44.799Z,80.88
2017-03-05T04:44:06.507Z,80.85
2017-03-05T04:44:28.201Z,80.84
2017-03-05T04:44:49.888Z,80.87
2017-03-05T04:45:16.360Z,81.03
2017-03-05T04:45:38.069Z,81.02
2017-03-05T04:45:59.766Z,81.08
2017-03-05T04:46:21.484Z,81.25
2017-03-05T04:46:43.181Z,81.30
2017-03-05T04:47:04.883Z,81.19
2017-03-05T04:47:26.587Z,81.14
2017-03-05T04:47:48.280Z,81.07
2017-03-05T04:48:09.970Z,81.14
2017-03-05T04:48:36.448Z,81.08
2017-03-05T04:48:58.135Z,81.10
2017-03-05T04:49:24.609Z,81.11
2017-03-05T04:49:46.307Z,81.18
2017-03-05T04:50:07.994Z,81.13
2017-03-05T04:50:29.701Z,81.10
2017-03-05T04:50:51.387Z,81.25
2017-03-05T04:51:13.088Z,81.29
2017-03-05T04:51:34.782Z,81.21
2017-03-05T04:51:56.469Z,81.33
2017-03-05T04:52:18.174Z,81.33
2017-03-05T04:52:39.883Z,81.28
2017-03-05T04:53:01.588Z,81.19
2017-03-05T04:53:23.288Z,81.05
2017-03-05T04:53:49.761Z,80.93
2017-03-05T04:54:11.452Z,80.88
2017-03-05T04:54:33.150Z,80.81
2017-03-05T04:54:59.627Z,80.89
2017-03-05T04:55:21.353Z,80.88
2017-03-05T04:55:43.054Z,80.90
2017-03-05T04:56:14.311Z,80.95
2017-03-05T04:56:36.009Z,80.94
2017-03-05T04:56:57.708Z,80.98
2017-03-05T04:57:19.407Z,80.90
2017-03-05T04:57:41.110Z,80.74
2017-03-05T04:58:02.803Z,80.87
2017-03-05T04:58:34.062Z,80.88
2017-03-05T04:58:55.761Z,80.71
2017-03-05T04:59:17.470Z,80.75
2017-03-05T04:59:39.181Z,80.67
2017-03-05T05:00:00.882Z,80.68
2017-03-05T05:00:22.593Z,80.77
2017-03-05T05:00:49.067Z,80.80
2017-03-05T05:01:10.757Z,80.79
2017-03-05T05:01:32.457Z,80.78
2017-03-05T05:01:54.156Z,80.78
2017-03-05T05:02:15.844Z,80.74
2017-03-05T05:02:37.547Z,80.64
2017-03-05T05:03:04.037Z,80.60
2017-03-05T05:03:25.726Z,80.58
2017-03-05T05:03:47.416Z,80.53
2017-03-05T05:04:13.890Z,80.42
2017-03-05T05:04:35.586Z,80.53
2017-03-05T05:04:57.292Z,80.79
2017-03-05T05:05:23.799Z,80.57
2017-03-05T05:05:45.498Z,80.55
2017-03-05T05:06:07.227Z,80.45
2017-03-05T05:06:28.918Z,80.49
2017-03-05T05:06:50.610Z,80.54
2017-03-05T05:07:12.322Z,80.55
2017-03-05T05:07:34.027Z,80.63
2017-03-05T05:07:55.723Z,80.59
2017-03-05T05:08:58.793Z,80.52
2017-03-05T05:09:20.486Z,80.47
2017-03-05T05:09:51.742Z,80.61
2017-03-05T05:10:13.438Z,80.69
2017-03-05T05:10:39.915Z,80.65
2017-03-05T05:11:01.609Z,80.65
2017-03-05T05:11:23.310Z,80.63
2017-03-05T05:11:45.019Z,80.63
2017-03-05T05:12:06.710Z,80.69
2017-03-05T05:12:28.410Z,80.75
2017-03-05T05:12:54.893Z,80.78
2017-03-05T05:13:16.584Z,80.75
2017-03-05T05:13:43.062Z,80.72
2017-03-05T05:14:04.751Z,80.62
2017-03-05T05:14:26.441Z,80.70
2017-03-05T05:14:57.694Z,80.73
2017-03-05T05:15:19.377Z,80.83
2017-03-05T05:15:41.089Z,80.82
2017-03-05T05:16:02.792Z,80.76
2017-03-05T05:16:24.488Z,80.84
2017-03-05T05:16:46.180Z,80.89
2017-03-05T05:17:07.882Z,80.78
2017-03-05T05:17:29.593Z,80.63
2017-03-05T05:17:56.073Z,80.64
2017-03-05T05:18:17.762Z,80.67
2017-03-05T05:18:39.455Z,80.69
2017-03-05T05:19:10.699Z,80.84
2017-03-05T05:19:32.401Z,80.79